This is the latest recevied weather packets stored in our database for station/object DA6VK-10. If no packets are shown the sender has not sent any weather packets the latest 10 day(s).
| Time | Temp. | Humidity | Pressure | Rain* | Wind** | Luminosity | Snow |
|---|---|---|---|---|---|---|---|
| 1777418363 | 14.44° C | 35% | 1022 hPa | - | - | - | - |
| 1777416561 | 14.44° C | 36% | 1022 hPa | - | - | - | - |
| 1777415660 | 15° C | 34% | 1021.9 hPa | - | - | - | - |
| 1777413859 | 15.56° C | 34% | 1021.7 hPa | - | - | - | - |
| 1777412958 | 15.56° C | 34% | 1021.6 hPa | - | - | - | - |
| 1777411156 | 16.11° C | 33% | 1021.4 hPa | - | - | - | - |
| 1777410255 | 16.11° C | 34% | 1021.2 hPa | - | - | - | - |
| 1777409354 | 16.11° C | 34% | 1021.1 hPa | - | - | - | - |
| 1777408453 | 16.67° C | 32% | 1020.9 hPa | - | - | - | - |
| 1777407553 | 17.22° C | 32% | 1020.8 hPa | - | - | - | - |
| 1777406652 | 17.22° C | 32% | 1020.7 hPa | - | - | - | - |
| 1777405751 | 17.78° C | 33% | 1020.7 hPa | - | - | - | - |
| 1777404850 | 18.89° C | 31% | 1020.3 hPa | - | - | - | - |
| 1777403949 | 18.33° C | 32% | 1020.8 hPa | - | - | - | - |
| 1777401247 | 20.56° C | 27% | 1019.3 hPa | - | - | - | - |
| 1777399445 | 21.67° C | 23% | 1018.8 hPa | - | - | - | - |
| 1777398545 | 22.22° C | 21% | 1018.7 hPa | - | - | - | - |
| 1777397644 | 23.89° C | 19% | 1018.5 hPa | - | - | - | - |
| 1777393140 | 25° C | 18% | 1018.3 hPa | - | - | - | - |
| 1777392239 | 24.44° C | 19% | 1018.1 hPa | - | - | - | - |
| 1777389536 | 23.33° C | 20% | 1018.2 hPa | - | - | - | - |
| 1777388636 | 23.89° C | 19% | 1018.1 hPa | - | - | - | - |
| 1777386834 | 23.33° C | 21% | 1018.4 hPa | - | - | - | - |
| 1777385933 | 23.33° C | 20% | 1018.4 hPa | - | - | - | - |
| 1777385032 | 23.33° C | 21% | 1018.5 hPa | - | - | - | - |
* Rain since midnight (hover to see other rain measurements)
** Current wind speed in m/s (hover to see current wind gust speed)